sensor_id;sensor_type;location;lat;lon;timestamp;temperature;humidity
11656;DHT22;5884;43.618;1.438;2024-03-02T05:47:38;8.40;99.90
11656;DHT22;5884;43.618;1.438;2024-03-02T05:50:06;8.40;99.90
11656;DHT22;5884;43.618;1.438;2024-03-02T05:52:33;8.40;99.90
11656;DHT22;5884;43.618;1.438;2024-03-02T05:55:01;8.40;99.90
11656;DHT22;5884;43.618;1.438;2024-03-02T05:57:28;8.40;99.90
11656;DHT22;5884;43.618;1.438;2024-03-02T06:00:16;8.40;99.90
11656;DHT22;5884;43.618;1.438;2024-03-02T06:02:44;8.40;99.90
11656;DHT22;5884;43.618;1.438;2024-03-02T06:05:12;8.40;99.90
11656;DHT22;5884;43.618;1.438;2024-03-02T06:07:40;8.30;99.90
11656;DHT22;5884;43.618;1.438;2024-03-02T06:10:08;8.30;99.90
11656;DHT22;5884;43.618;1.438;2024-03-02T06:12:36;8.30;99.90
11656;DHT22;5884;43.618;1.438;2024-03-02T06:15:04;8.30;99.90
11656;DHT22;5884;43.618;1.438;2024-03-02T06:17:35;8.30;99.90
11656;DHT22;5884;43.618;1.438;2024-03-02T06:20:02;8.30;99.90
11656;DHT22;5884;43.618;1.438;2024-03-02T06:22:30;8.30;99.90
11656;DHT22;5884;43.618;1.438;2024-03-02T06:24:57;8.30;99.90
11656;DHT22;5884;43.618;1.438;2024-03-02T06:27:25;8.20;99.90
11656;DHT22;5884;43.618;1.438;2024-03-02T06:29:52;8.20;99.90
11656;DHT22;5884;43.618;1.438;2024-03-02T06:32:20;8.30;99.90
11656;DHT22;5884;43.618;1.438;2024-03-02T06:34:50;8.30;99.90
11656;DHT22;5884;43.618;1.438;2024-03-02T06:37:17;8.20;99.90
11656;DHT22;5884;43.618;1.438;2024-03-02T06:39:44;8.20;99.90
11656;DHT22;5884;43.618;1.438;2024-03-02T06:42:11;8.20;99.90
11656;DHT22;5884;43.618;1.438;2024-03-02T06:44:38;8.20;99.90
11656;DHT22;5884;43.618;1.438;2024-03-02T06:47:06;8.20;99.90
11656;DHT22;5884;43.618;1.438;2024-03-02T06:49:33;8.10;99.90
11656;DHT22;5884;43.618;1.438;2024-03-02T06:52:02;8.10;99.90
11656;DHT22;5884;43.618;1.438;2024-03-02T06:54:30;8.10;99.90
11656;DHT22;5884;43.618;1.438;2024-03-02T06:56:57;8.20;99.90
11656;DHT22;5884;43.618;1.438;2024-03-02T06:59:24;8.20;99.90
11656;DHT22;5884;43.618;1.438;2024-03-02T07:01:51;8.20;99.90
11656;DHT22;5884;43.618;1.438;2024-03-02T07:04:18;8.30;99.90
11656;DHT22;5884;43.618;1.438;2024-03-02T07:06:46;8.30;99.90
11656;DHT22;5884;43.618;1.438;2024-03-02T07:09:14;8.40;99.90
11656;DHT22;5884;43.618;1.438;2024-03-02T07:11:41;8.40;99.90
11656;DHT22;5884;43.618;1.438;2024-03-02T07:14:09;8.50;99.90
11656;DHT22;5884;43.618;1.438;2024-03-02T07:16:37;8.50;99.90
11656;DHT22;5884;43.618;1.438;2024-03-02T07:19:06;8.50;99.90
11656;DHT22;5884;43.618;1.438;2024-03-02T07:21:33;8.60;99.90
11656;DHT22;5884;43.618;1.438;2024-03-02T07:24:00;8.50;99.90
11656;DHT22;5884;43.618;1.438;2024-03-02T07:26:30;8.60;99.90
11656;DHT22;5884;43.618;1.438;2024-03-02T07:28:57;8.50;99.90
11656;DHT22;5884;43.618;1.438;2024-03-02T07:31:25;8.50;99.90
11656;DHT22;5884;43.618;1.438;2024-03-02T07:33:52;8.50;99.90
11656;DHT22;5884;43.618;1.438;2024-03-02T07:36:19;8.50;99.90
11656;DHT22;5884;43.618;1.438;2024-03-02T07:38:46;8.40;99.90
11656;DHT22;5884;43.618;1.438;2024-03-02T07:41:15;8.30;99.90
11656;DHT22;5884;43.618;1.438;2024-03-02T07:43:44;8.30;99.90
11656;DHT22;5884;43.618;1.438;2024-03-02T07:46:11;8.40;99.90
11656;DHT22;5884;43.618;1.438;2024-03-02T07:48:39;8.50;99.90
11656;DHT22;5884;43.618;1.438;2024-03-02T07:51:06;8.50;99.90
11656;DHT22;5884;43.618;1.438;2024-03-02T07:53:34;8.60;99.90
11656;DHT22;5884;43.618;1.438;2024-03-02T07:56:02;8.60;99.90
11656;DHT22;5884;43.618;1.438;2024-03-02T07:58:30;8.60;99.90
11656;DHT22;5884;43.618;1.438;2024-03-02T08:01:00;8.70;99.90
11656;DHT22;5884;43.618;1.438;2024-03-02T08:03:28;8.70;99.90
11656;DHT22;5884;43.618;1.438;2024-03-02T08:05:55;8.80;99.90
11656;DHT22;5884;43.618;1.438;2024-03-02T08:08:22;8.80;99.90
11656;DHT22;5884;43.618;1.438;2024-03-02T08:10:49;8.80;99.90
11656;DHT22;5884;43.618;1.438;2024-03-02T08:13:16;8.90;99.90
11656;DHT22;5884;43.618;1.438;2024-03-02T08:15:44;8.90;99.90
11656;DHT22;5884;43.618;1.438;2024-03-02T08:18:13;9.00;99.90
11656;DHT22;5884;43.618;1.438;2024-03-02T08:20:41;9.10;99.90
11656;DHT22;5884;43.618;1.438;2024-03-02T08:23:08;9.20;99.90
11656;DHT22;5884;43.618;1.438;2024-03-02T08:25:35;9.30;99.90
11656;DHT22;5884;43.618;1.438;2024-03-02T08:28:03;9.40;99.90
11656;DHT22;5884;43.618;1.438;2024-03-02T08:30:31;9.50;99.90
11656;DHT22;5884;43.618;1.438;2024-03-02T08:32:58;9.70;99.90
11656;DHT22;5884;43.618;1.438;2024-03-02T08:35:27;9.90;99.90
11656;DHT22;5884;43.618;1.438;2024-03-02T08:37:54;10.00;99.90
11656;DHT22;5884;43.618;1.438;2024-03-02T08:40:22;10.10;99.90
11656;DHT22;5884;43.618;1.438;2024-03-02T08:42:50;10.40;99.90
11656;DHT22;5884;43.618;1.438;2024-03-02T08:45:17;10.40;99.90
11656;DHT22;5884;43.618;1.438;2024-03-02T08:47:46;10.50;99.90
11656;DHT22;5884;43.618;1.438;2024-03-02T08:50:13;10.50;99.90
11656;DHT22;5884;43.618;1.438;2024-03-02T08:52:42;10.40;99.90
11656;DHT22;5884;43.618;1.438;2024-03-02T08:55:09;10.40;99.90
11656;DHT22;5884;43.618;1.438;2024-03-02T08:57:37;10.40;99.90
11656;DHT22;5884;43.618;1.438;2024-03-02T09:00:06;10.50;99.90
11656;DHT22;5884;43.618;1.438;2024-03-02T09:02:34;10.50;99.90
11656;DHT22;5884;43.618;1.438;2024-03-02T09:05:02;10.40;99.90
11656;DHT22;5884;43.618;1.438;2024-03-02T09:07:29;10.50;99.90
11656;DHT22;5884;43.618;1.438;2024-03-02T09:09:58;10.60;99.90
11656;DHT22;5884;43.618;1.438;2024-03-02T09:12:25;10.70;99.90
11656;DHT22;5884;43.618;1.438;2024-03-02T09:14:52;10.80;99.90
11656;DHT22;5884;43.618;1.438;2024-03-02T09:17:19;10.90;99.90
11656;DHT22;5884;43.618;1.438;2024-03-02T09:19:46;11.00;99.90
11656;DHT22;5884;43.618;1.438;2024-03-02T09:22:14;11.20;99.90
11656;DHT22;5884;43.618;1.438;2024-03-02T09:24:41;11.10;99.90
11656;DHT22;5884;43.618;1.438;2024-03-02T09:27:10;11.30;99.90
11656;DHT22;5884;43.618;1.438;2024-03-02T09:29:37;11.20;99.90
11656;DHT22;5884;43.618;1.438;2024-03-02T09:32:05;11.10;99.90
11656;DHT22;5884;43.618;1.438;2024-03-02T09:34:34;11.20;99.90
11656;DHT22;5884;43.618;1.438;2024-03-02T09:37:01;11.30;99.90
11656;DHT22;5884;43.618;1.438;2024-03-02T09:39:29;11.20;99.90
11656;DHT22;5884;43.618;1.438;2024-03-02T09:41:56;11.10;99.90
11656;DHT22;5884;43.618;1.438;2024-03-02T09:44:26;11.10;99.90
11656;DHT22;5884;43.618;1.438;2024-03-02T09:46:53;11.00;99.90
11656;DHT22;5884;43.618;1.438;2024-03-02T09:49:20;10.90;99.90
11656;DHT22;5884;43.618;1.438;2024-03-02T09:51:48;10.90;99.90
11656;DHT22;5884;43.618;1.438;2024-03-02T09:54:16;10.90;99.90
11656;DHT22;5884;43.618;1.438;2024-03-02T09:56:44;10.90;99.90
11656;DHT22;5884;43.618;1.438;2024-03-02T09:59:11;10.90;99.90
11656;DHT22;5884;43.618;1.438;2024-03-02T10:01:55;10.90;99.90
11656;DHT22;5884;43.618;1.438;2024-03-02T10:04:25;10.90;99.90
11656;DHT22;5884;43.618;1.438;2024-03-02T10:07:09;11.00;99.90
11656;DHT22;5884;43.618;1.438;2024-03-02T10:09:38;11.10;99.90
11656;DHT22;5884;43.618;1.438;2024-03-02T10:12:07;11.10;99.90
11656;DHT22;5884;43.618;1.438;2024-03-02T10:14:37;11.00;99.90
11656;DHT22;5884;43.618;1.438;2024-03-02T10:17:07;11.10;99.90
11656;DHT22;5884;43.618;1.438;2024-03-02T10:19:35;11.10;99.90
11656;DHT22;5884;43.618;1.438;2024-03-02T10:22:03;11.10;99.90
11656;DHT22;5884;43.618;1.438;2024-03-02T10:24:38;11.20;99.90
11656;DHT22;5884;43.618;1.438;2024-03-02T10:27:10;11.30;99.90
11656;DHT22;5884;43.618;1.438;2024-03-02T10:29:42;11.40;99.90
11656;DHT22;5884;43.618;1.438;2024-03-02T10:32:13;11.50;99.90
11656;DHT22;5884;43.618;1.438;2024-03-02T10:34:42;11.60;99.90
11656;DHT22;5884;43.618;1.438;2024-03-02T10:37:11;11.70;99.90
11656;DHT22;5884;43.618;1.438;2024-03-02T10:39:39;11.80;99.90
11656;DHT22;5884;43.618;1.438;2024-03-02T10:42:07;11.80;99.90
11656;DHT22;5884;43.618;1.438;2024-03-02T10:44:35;11.90;99.90
11656;DHT22;5884;43.618;1.438;2024-03-02T10:47:04;12.10;99.90
11656;DHT22;5884;43.618;1.438;2024-03-02T10:49:33;12.20;99.90
11656;DHT22;5884;43.618;1.438;2024-03-02T10:52:00;12.30;99.90
11656;DHT22;5884;43.618;1.438;2024-03-02T10:54:28;12.30;99.90
11656;DHT22;5884;43.618;1.438;2024-03-02T10:57:01;12.50;99.90
11656;DHT22;5884;43.618;1.438;2024-03-02T10:59:33;12.70;99.90
11656;DHT22;5884;43.618;1.438;2024-03-02T11:02:03;12.70;99.90
11656;DHT22;5884;43.618;1.438;2024-03-02T11:04:34;12.70;99.90
11656;DHT22;5884;43.618;1.438;2024-03-02T11:07:04;12.80;99.90
11656;DHT22;5884;43.618;1.438;2024-03-02T11:09:34;13.00;99.90
11656;DHT22;5884;43.618;1.438;2024-03-02T11:12:06;13.10;99.90
11656;DHT22;5884;43.618;1.438;2024-03-02T11:14:41;13.10;99.90
11656;DHT22;5884;43.618;1.438;2024-03-02T11:17:10;13.20;99.90
11656;DHT22;5884;43.618;1.438;2024-03-02T11:19:41;13.30;99.90
11656;DHT22;5884;43.618;1.438;2024-03-02T11:22:08;13.50;99.90
11656;DHT22;5884;43.618;1.438;2024-03-02T11:24:36;13.50;99.90
11656;DHT22;5884;43.618;1.438;2024-03-02T11:27:04;13.40;99.90
11656;DHT22;5884;43.618;1.438;2024-03-02T11:29:44;13.40;99.90
11656;DHT22;5884;43.618;1.438;2024-03-02T11:32:16;13.30;99.90
11656;DHT22;5884;43.618;1.438;2024-03-02T11:34:46;13.50;99.90
11656;DHT22;5884;43.618;1.438;2024-03-02T11:37:15;13.50;99.90
11656;DHT22;5884;43.618;1.438;2024-03-02T11:39:44;13.60;99.90
11656;DHT22;5884;43.618;1.438;2024-03-02T11:42:12;13.60;99.90
11656;DHT22;5884;43.618;1.438;2024-03-02T11:44:43;13.60;99.90
11656;DHT22;5884;43.618;1.438;2024-03-02T11:47:13;13.50;99.90
11656;DHT22;5884;43.618;1.438;2024-03-02T11:49:43;13.50;99.90
11656;DHT22;5884;43.618;1.438;2024-03-02T11:52:13;13.50;99.90
11656;DHT22;5884;43.618;1.438;2024-03-02T11:54:44;13.50;99.90
11656;DHT22;5884;43.618;1.438;2024-03-02T11:57:17;13.60;99.90
11656;DHT22;5884;43.618;1.438;2024-03-02T11:59:46;13.60;99.90
11656;DHT22;5884;43.618;1.438;2024-03-02T12:02:16;13.80;99.90
11656;DHT22;5884;43.618;1.438;2024-03-02T12:04:46;13.90;99.90
11656;DHT22;5884;43.618;1.438;2024-03-02T12:07:19;14.00;99.90
11656;DHT22;5884;43.618;1.438;2024-03-02T12:09:47;13.90;99.90
11656;DHT22;5884;43.618;1.438;2024-03-02T12:12:15;13.90;99.90
11656;DHT22;5884;43.618;1.438;2024-03-02T12:14:50;14.10;99.90
11656;DHT22;5884;43.618;1.438;2024-03-02T12:17:21;14.20;99.90
11656;DHT22;5884;43.618;1.438;2024-03-02T12:19:50;14.10;99.90
11656;DHT22;5884;43.618;1.438;2024-03-02T12:22:18;14.10;99.90
11656;DHT22;5884;43.618;1.438;2024-03-02T12:24:45;14.20;99.90
11656;DHT22;5884;43.618;1.438;2024-03-02T12:27:13;14.40;99.90
11656;DHT22;5884;43.618;1.438;2024-03-02T12:29:42;14.50;99.90
11656;DHT22;5884;43.618;1.438;2024-03-02T12:32:09;14.40;99.90
11656;DHT22;5884;43.618;1.438;2024-03-02T12:34:38;14.40;99.90
11656;DHT22;5884;43.618;1.438;2024-03-02T12:37:06;14.40;99.90
11656;DHT22;5884;43.618;1.438;2024-03-02T12:39:34;14.30;99.90
11656;DHT22;5884;43.618;1.438;2024-03-02T12:42:03;14.40;99.90
11656;DHT22;5884;43.618;1.438;2024-03-02T12:44:30;14.50;99.90
11656;DHT22;5884;43.618;1.438;2024-03-02T12:47:00;14.50;99.90
11656;DHT22;5884;43.618;1.438;2024-03-02T12:49:29;14.60;99.90
11656;DHT22;5884;43.618;1.438;2024-03-02T12:51:58;14.70;99.90
11656;DHT22;5884;43.618;1.438;2024-03-02T12:54:27;14.70;99.90
11656;DHT22;5884;43.618;1.438;2024-03-02T12:56:54;14.80;99.90
11656;DHT22;5884;43.618;1.438;2024-03-02T12:59:24;14.80;99.90
11656;DHT22;5884;43.618;1.438;2024-03-02T13:01:52;15.00;99.90
11656;DHT22;5884;43.618;1.438;2024-03-02T13:04:23;14.90;99.90
11656;DHT22;5884;43.618;1.438;2024-03-02T13:06:52;14.80;99.90
11656;DHT22;5884;43.618;1.438;2024-03-02T13:09:20;14.80;99.90
11656;DHT22;5884;43.618;1.438;2024-03-02T13:11:49;14.90;99.90
11656;DHT22;5884;43.618;1.438;2024-03-02T13:14:16;14.90;99.90
11656;DHT22;5884;43.618;1.438;2024-03-02T13:16:44;14.90;99.90
11656;DHT22;5884;43.618;1.438;2024-03-02T13:19:12;14.70;99.90
11656;DHT22;5884;43.618;1.438;2024-03-02T13:21:40;14.70;99.90
11656;DHT22;5884;43.618;1.438;2024-03-02T13:24:07;14.70;99.90
11656;DHT22;5884;43.618;1.438;2024-03-02T13:26:35;14.90;99.90
11656;DHT22;5884;43.618;1.438;2024-03-02T13:29:04;15.00;99.90
11656;DHT22;5884;43.618;1.438;2024-03-02T13:31:31;14.90;99.90
11656;DHT22;5884;43.618;1.438;2024-03-02T13:33:58;14.80;99.90
11656;DHT22;5884;43.618;1.438;2024-03-02T13:36:26;14.50;99.90
11656;DHT22;5884;43.618;1.438;2024-03-02T13:38:53;14.40;99.90
11656;DHT22;5884;43.618;1.438;2024-03-02T13:41:20;14.30;99.90
11656;DHT22;5884;43.618;1.438;2024-03-02T13:43:47;14.40;99.90
11656;DHT22;5884;43.618;1.438;2024-03-02T13:46:16;14.40;99.90
11656;DHT22;5884;43.618;1.438;2024-03-02T13:48:43;14.30;99.90
11656;DHT22;5884;43.618;1.438;2024-03-02T13:51:10;14.40;99.90
11656;DHT22;5884;43.618;1.438;2024-03-02T13:53:37;14.40;99.90
11656;DHT22;5884;43.618;1.438;2024-03-02T13:56:06;14.50;99.90
11656;DHT22;5884;43.618;1.438;2024-03-02T13:58:33;14.50;99.90
11656;DHT22;5884;43.618;1.438;2024-03-02T14:01:01;14.50;99.90
11656;DHT22;5884;43.618;1.438;2024-03-02T14:03:31;14.50;99.90
11656;DHT22;5884;43.618;1.438;2024-03-02T14:05:58;14.50;99.90
11656;DHT22;5884;43.618;1.438;2024-03-02T14:08:25;14.40;99.90
11656;DHT22;5884;43.618;1.438;2024-03-02T14:10:53;14.30;99.90
11656;DHT22;5884;43.618;1.438;2024-03-02T14:13:21;14.20;99.90
11656;DHT22;5884;43.618;1.438;2024-03-02T14:15:48;14.20;99.90
11656;DHT22;5884;43.618;1.438;2024-03-02T14:18:15;14.20;99.90
11656;DHT22;5884;43.618;1.438;2024-03-02T14:20:44;14.10;99.90
11656;DHT22;5884;43.618;1.438;2024-03-02T14:23:14;14.00;99.90
11656;DHT22;5884;43.618;1.438;2024-03-02T14:25:41;14.10;99.90
11656;DHT22;5884;43.618;1.438;2024-03-02T14:28:08;14.10;99.90
11656;DHT22;5884;43.618;1.438;2024-03-02T14:30:36;14.10;99.90
11656;DHT22;5884;43.618;1.438;2024-03-02T14:33:03;14.10;99.90
11656;DHT22;5884;43.618;1.438;2024-03-02T14:35:30;14.10;99.90
11656;DHT22;5884;43.618;1.438;2024-03-02T14:37:59;14.00;99.90
11656;DHT22;5884;43.618;1.438;2024-03-02T14:40:26;14.00;99.90
11656;DHT22;5884;43.618;1.438;2024-03-02T14:42:55;14.00;99.90
11656;DHT22;5884;43.618;1.438;2024-03-02T14:45:22;14.00;99.90
11656;DHT22;5884;43.618;1.438;2024-03-02T14:47:50;13.80;99.90
11656;DHT22;5884;43.618;1.438;2024-03-02T14:50:18;13.90;99.90
11656;DHT22;5884;43.618;1.438;2024-03-02T14:52:45;13.80;99.90
11656;DHT22;5884;43.618;1.438;2024-03-02T14:55:14;13.80;99.90
11656;DHT22;5884;43.618;1.438;2024-03-02T14:57:42;13.90;99.90
11656;DHT22;5884;43.618;1.438;2024-03-02T15:00:10;13.90;99.90
11656;DHT22;5884;43.618;1.438;2024-03-02T15:02:38;13.80;99.90
11656;DHT22;5884;43.618;1.438;2024-03-02T15:05:05;13.80;99.90
11656;DHT22;5884;43.618;1.438;2024-03-02T15:07:33;13.80;99.90
11656;DHT22;5884;43.618;1.438;2024-03-02T15:10:01;13.70;99.90
11656;DHT22;5884;43.618;1.438;2024-03-02T15:12:31;13.70;99.90
11656;DHT22;5884;43.618;1.438;2024-03-02T15:14:58;13.80;99.90
11656;DHT22;5884;43.618;1.438;2024-03-02T15:17:25;13.80;99.90
11656;DHT22;5884;43.618;1.438;2024-03-02T15:19:53;13.70;99.90
11656;DHT22;5884;43.618;1.438;2024-03-02T15:22:20;13.70;99.90
11656;DHT22;5884;43.618;1.438;2024-03-02T15:24:47;13.60;99.90
11656;DHT22;5884;43.618;1.438;2024-03-02T15:27:15;13.70;99.90
11656;DHT22;5884;43.618;1.438;2024-03-02T15:29:43;13.70;99.90
11656;DHT22;5884;43.618;1.438;2024-03-02T15:32:10;13.80;99.90
11656;DHT22;5884;43.618;1.438;2024-03-02T15:34:38;13.80;99.90
11656;DHT22;5884;43.618;1.438;2024-03-02T15:37:05;13.80;99.90
11656;DHT22;5884;43.618;1.438;2024-03-02T15:39:32;13.70;99.90
11656;DHT22;5884;43.618;1.438;2024-03-02T15:41:59;13.70;99.90
11656;DHT22;5884;43.618;1.438;2024-03-02T15:44:27;13.60;99.90
11656;DHT22;5884;43.618;1.438;2024-03-02T15:46:55;13.60;99.90
11656;DHT22;5884;43.618;1.438;2024-03-02T15:49:23;13.60;99.90
11656;DHT22;5884;43.618;1.438;2024-03-02T15:51:50;13.60;99.90
11656;DHT22;5884;43.618;1.438;2024-03-02T15:54:17;13.60;99.90
11656;DHT22;5884;43.618;1.438;2024-03-02T15:56:45;13.60;99.90
11656;DHT22;5884;43.618;1.438;2024-03-02T15:59:12;13.50;99.90
11656;DHT22;5884;43.618;1.438;2024-03-02T16:01:40;13.50;99.90
11656;DHT22;5884;43.618;1.438;2024-03-02T16:04:10;13.50;99.90
11656;DHT22;5884;43.618;1.438;2024-03-02T16:06:37;13.40;99.90
11656;DHT22;5884;43.618;1.438;2024-03-02T16:09:04;13.40;99.90
11656;DHT22;5884;43.618;1.438;2024-03-02T16:11:35;13.30;99.90
11656;DHT22;5884;43.618;1.438;2024-03-02T16:14:01;13.20;99.90
11656;DHT22;5884;43.618;1.438;2024-03-02T16:16:29;13.20;99.90
11656;DHT22;5884;43.618;1.438;2024-03-02T16:18:56;13.30;99.90
11656;DHT22;5884;43.618;1.438;2024-03-02T16:21:24;13.30;99.90
11656;DHT22;5884;43.618;1.438;2024-03-02T16:24:25;13.30;99.90
11656;DHT22;5884;43.618;1.438;2024-03-02T16:31:18;13.30;99.90
11656;DHT22;5884;43.618;1.438;2024-03-02T16:33:46;13.30;99.90
11656;DHT22;5884;43.618;1.438;2024-03-02T16:36:13;13.30;99.90
11656;DHT22;5884;43.618;1.438;2024-03-02T16:38:42;13.30;99.90
11656;DHT22;5884;43.618;1.438;2024-03-02T16:41:10;13.20;99.90
11656;DHT22;5884;43.618;1.438;2024-03-02T16:43:37;13.20;99.90
11656;DHT22;5884;43.618;1.438;2024-03-02T16:46:04;13.20;99.90
11656;DHT22;5884;43.618;1.438;2024-03-02T16:48:32;13.20;99.90
11656;DHT22;5884;43.618;1.438;2024-03-02T16:50:59;13.10;99.90
11656;DHT22;5884;43.618;1.438;2024-03-02T16:53:27;13.10;99.90
11656;DHT22;5884;43.618;1.438;2024-03-02T16:55:59;13.10;99.90
11656;DHT22;5884;43.618;1.438;2024-03-02T16:58:26;13.10;99.90
11656;DHT22;5884;43.618;1.438;2024-03-02T17:00:53;13.00;99.90
11656;DHT22;5884;43.618;1.438;2024-03-02T17:03:21;12.90;99.90
11656;DHT22;5884;43.618;1.438;2024-03-02T17:05:48;12.90;99.90
11656;DHT22;5884;43.618;1.438;2024-03-02T17:08:15;12.80;99.90
11656;DHT22;5884;43.618;1.438;2024-03-02T17:10:42;12.80;99.90
11656;DHT22;5884;43.618;1.438;2024-03-02T17:13:13;12.80;99.90
11656;DHT22;5884;43.618;1.438;2024-03-02T17:15:40;12.70;99.90
11656;DHT22;5884;43.618;1.438;2024-03-02T17:18:07;12.70;99.90
11656;DHT22;5884;43.618;1.438;2024-03-02T17:20:34;12.60;99.90
11656;DHT22;5884;43.618;1.438;2024-03-02T17:23:01;12.60;99.90
11656;DHT22;5884;43.618;1.438;2024-03-02T17:25:29;12.60;99.90
11656;DHT22;5884;43.618;1.438;2024-03-02T17:28:21;12.50;99.90
11656;DHT22;5884;43.618;1.438;2024-03-02T17:30:49;12.50;99.90
11656;DHT22;5884;43.618;1.438;2024-03-02T17:33:16;12.40;99.90
11656;DHT22;5884;43.618;1.438;2024-03-02T17:35:44;12.50;99.90
11656;DHT22;5884;43.618;1.438;2024-03-02T17:38:13;12.50;99.90
11656;DHT22;5884;43.618;1.438;2024-03-02T17:40:40;12.50;99.90
11656;DHT22;5884;43.618;1.438;2024-03-02T17:43:09;12.40;99.90
11656;DHT22;5884;43.618;1.438;2024-03-02T17:45:38;12.40;99.90
11656;DHT22;5884;43.618;1.438;2024-03-02T17:48:07;12.30;99.90
11656;DHT22;5884;43.618;1.438;2024-03-02T17:50:34;12.20;99.90
11656;DHT22;5884;43.618;1.438;2024-03-02T17:53:04;12.30;99.90
11656;DHT22;5884;43.618;1.438;2024-03-02T17:55:31;12.30;99.90
11656;DHT22;5884;43.618;1.438;2024-03-02T17:57:59;12.30;99.90
11656;DHT22;5884;43.618;1.438;2024-03-02T18:00:27;12.30;99.90
11656;DHT22;5884;43.618;1.438;2024-03-02T18:02:55;12.20;99.90
11656;DHT22;5884;43.618;1.438;2024-03-02T18:05:22;12.20;99.90
11656;DHT22;5884;43.618;1.438;2024-03-02T18:07:50;12.20;99.90
11656;DHT22;5884;43.618;1.438;2024-03-02T18:10:17;12.30;99.90
11656;DHT22;5884;43.618;1.438;2024-03-02T18:12:46;12.20;99.90
11656;DHT22;5884;43.618;1.438;2024-03-02T18:15:14;12.30;99.90
11656;DHT22;5884;43.618;1.438;2024-03-02T18:17:41;12.20;99.90
11656;DHT22;5884;43.618;1.438;2024-03-02T18:20:10;12.20;99.90
11656;DHT22;5884;43.618;1.438;2024-03-02T18:22:38;12.20;99.90
11656;DHT22;5884;43.618;1.438;2024-03-02T18:25:06;12.20;99.90
11656;DHT22;5884;43.618;1.438;2024-03-02T18:27:34;12.20;99.90
11656;DHT22;5884;43.618;1.438;2024-03-02T18:30:02;12.10;99.90
11656;DHT22;5884;43.618;1.438;2024-03-02T18:32:35;11.80;99.90
11656;DHT22;5884;43.618;1.438;2024-03-02T18:35:04;11.50;99.90
11656;DHT22;5884;43.618;1.438;2024-03-02T18:37:35;11.30;99.90
11656;DHT22;5884;43.618;1.438;2024-03-02T18:40:02;11.20;99.90
11656;DHT22;5884;43.618;1.438;2024-03-02T18:42:30;11.00;99.90
11656;DHT22;5884;43.618;1.438;2024-03-02T18:44:58;10.90;99.90
11656;DHT22;5884;43.618;1.438;2024-03-02T18:47:25;10.80;99.90
11656;DHT22;5884;43.618;1.438;2024-03-02T18:49:53;10.70;99.90
11656;DHT22;5884;43.618;1.438;2024-03-02T18:52:21;10.50;99.90
11656;DHT22;5884;43.618;1.438;2024-03-02T18:54:49;10.40;99.90
11656;DHT22;5884;43.618;1.438;2024-03-02T18:57:17;10.20;99.90
11656;DHT22;5884;43.618;1.438;2024-03-02T18:59:44;10.10;99.90
11656;DHT22;5884;43.618;1.438;2024-03-02T19:02:11;10.00;99.90
11656;DHT22;5884;43.618;1.438;2024-03-02T19:04:38;10.00;99.90
11656;DHT22;5884;43.618;1.438;2024-03-02T19:07:06;10.00;99.90
11656;DHT22;5884;43.618;1.438;2024-03-02T19:09:36;9.90;99.90
11656;DHT22;5884;43.618;1.438;2024-03-02T19:12:05;9.80;99.90
11656;DHT22;5884;43.618;1.438;2024-03-02T19:14:33;9.80;99.90
11656;DHT22;5884;43.618;1.438;2024-03-02T19:17:00;9.70;99.90
11656;DHT22;5884;43.618;1.438;2024-03-02T19:19:28;9.80;99.90
11656;DHT22;5884;43.618;1.438;2024-03-02T19:21:55;9.80;99.90
11656;DHT22;5884;43.618;1.438;2024-03-02T19:24:22;9.90;99.90
11656;DHT22;5884;43.618;1.438;2024-03-02T19:26:49;9.80;99.90
11656;DHT22;5884;43.618;1.438;2024-03-02T19:29:18;9.70;99.90
11656;DHT22;5884;43.618;1.438;2024-03-02T19:31:47;9.70;99.90
11656;DHT22;5884;43.618;1.438;2024-03-02T19:34:14;9.70;99.90
11656;DHT22;5884;43.618;1.438;2024-03-02T19:36:43;9.70;99.90
11656;DHT22;5884;43.618;1.438;2024-03-02T19:39:10;9.80;99.90
11656;DHT22;5884;43.618;1.438;2024-03-02T19:41:37;9.70;99.90
11656;DHT22;5884;43.618;1.438;2024-03-02T19:44:05;9.70;99.90
11656;DHT22;5884;43.618;1.438;2024-03-02T19:46:33;9.80;99.90
11656;DHT22;5884;43.618;1.438;2024-03-02T19:49:00;9.60;99.90
11656;DHT22;5884;43.618;1.438;2024-03-02T19:51:28;9.60;99.90
11656;DHT22;5884;43.618;1.438;2024-03-02T19:53:55;9.60;99.90
11656;DHT22;5884;43.618;1.438;2024-03-02T19:56:23;9.50;99.90
11656;DHT22;5884;43.618;1.438;2024-03-02T19:58:50;9.50;99.90
11656;DHT22;5884;43.618;1.438;2024-03-02T20:01:19;9.50;99.90
11656;DHT22;5884;43.618;1.438;2024-03-02T20:03:47;9.50;99.90
11656;DHT22;5884;43.618;1.438;2024-03-02T20:06:15;9.40;99.90
11656;DHT22;5884;43.618;1.438;2024-03-02T20:08:44;9.40;99.90
11656;DHT22;5884;43.618;1.438;2024-03-02T20:11:11;9.40;99.90
11656;DHT22;5884;43.618;1.438;2024-03-02T20:13:38;9.30;99.90
11656;DHT22;5884;43.618;1.438;2024-03-02T20:16:07;9.20;99.90
11656;DHT22;5884;43.618;1.438;2024-03-02T20:18:35;9.20;99.90
11656;DHT22;5884;43.618;1.438;2024-03-02T20:21:04;9.20;99.90
11656;DHT22;5884;43.618;1.438;2024-03-02T20:23:31;9.20;99.90
11656;DHT22;5884;43.618;1.438;2024-03-02T20:25:58;9.00;99.90
11656;DHT22;5884;43.618;1.438;2024-03-02T20:28:25;8.90;99.90
11656;DHT22;5884;43.618;1.438;2024-03-02T20:30:52;8.90;99.90
11656;DHT22;5884;43.618;1.438;2024-03-02T20:33:20;8.80;99.90
11656;DHT22;5884;43.618;1.438;2024-03-02T20:35:47;8.60;99.90
11656;DHT22;5884;43.618;1.438;2024-03-02T20:38:15;8.50;99.90
11656;DHT22;5884;43.618;1.438;2024-03-02T20:40:43;8.50;99.90
11656;DHT22;5884;43.618;1.438;2024-03-02T20:43:12;8.50;99.90
11656;DHT22;5884;43.618;1.438;2024-03-02T20:45:40;8.40;99.90
11656;DHT22;5884;43.618;1.438;2024-03-02T20:48:07;8.20;99.90
11656;DHT22;5884;43.618;1.438;2024-03-02T20:50:34;8.10;99.90
11656;DHT22;5884;43.618;1.438;2024-03-02T20:53:02;8.00;99.90
11656;DHT22;5884;43.618;1.438;2024-03-02T20:55:34;8.00;99.90
11656;DHT22;5884;43.618;1.438;2024-03-02T20:58:03;8.00;99.90
11656;DHT22;5884;43.618;1.438;2024-03-02T21:00:30;7.90;99.90
11656;DHT22;5884;43.618;1.438;2024-03-02T21:02:58;7.90;99.90
11656;DHT22;5884;43.618;1.438;2024-03-02T21:05:25;7.90;99.90
11656;DHT22;5884;43.618;1.438;2024-03-02T21:07:52;7.90;99.90
11656;DHT22;5884;43.618;1.438;2024-03-02T21:10:20;7.70;99.90
11656;DHT22;5884;43.618;1.438;2024-03-02T21:12:49;7.70;99.90
11656;DHT22;5884;43.618;1.438;2024-03-02T21:15:16;7.60;99.90
11656;DHT22;5884;43.618;1.438;2024-03-02T21:17:43;7.70;99.90
11656;DHT22;5884;43.618;1.438;2024-03-02T21:20:11;7.70;99.90
11656;DHT22;5884;43.618;1.438;2024-03-02T21:22:38;7.70;99.90
11656;DHT22;5884;43.618;1.438;2024-03-02T21:25:07;7.70;99.90
11656;DHT22;5884;43.618;1.438;2024-03-02T21:27:37;7.70;99.90
11656;DHT22;5884;43.618;1.438;2024-03-02T21:30:07;7.70;99.90
11656;DHT22;5884;43.618;1.438;2024-03-02T21:32:35;7.70;99.90
11656;DHT22;5884;43.618;1.438;2024-03-02T21:35:02;7.70;99.90
11656;DHT22;5884;43.618;1.438;2024-03-02T21:37:31;7.70;99.90
11656;DHT22;5884;43.618;1.438;2024-03-02T21:39:58;7.60;99.90
11656;DHT22;5884;43.618;1.438;2024-03-02T21:42:25;7.60;99.90
11656;DHT22;5884;43.618;1.438;2024-03-02T21:44:53;7.40;99.90
11656;DHT22;5884;43.618;1.438;2024-03-02T21:47:21;7.40;99.90
11656;DHT22;5884;43.618;1.438;2024-03-02T21:49:49;7.30;99.90